Terminal Aerodrome Forecast
Issued by NWS Springfield, MO

Home | Current Version | Previous Version | Text Only | Print | Product List | Glossary On
Versions: 1 2 3 4 5 6 7 8 9 10 11 12 13 14 15 16 17
000
FTUS43 KSGF 122300
TAFSGF
TAF
KSGF 122330Z 1300/1324 20008KT P6SM FEW150
     FM131000 20008KT P6SM SKC WS017/25035KT
     FM131400 24013G18KT P6SM SCT050 SCT250 PROB30 1318/1324 6SM
      -TSRA BR OVC040CB=

USA.gov is the U.S. government's official web portal to all federal, state and local government web resources and services.